createdAt,value
2024-03-03T00:01:07.990Z,11.90
2024-03-03T00:03:36.910Z,11.90
2024-03-03T00:06:07.563Z,12.65
2024-03-03T00:08:35.047Z,12.95
2024-03-03T00:11:02.161Z,11.48
2024-03-03T00:13:30.708Z,9.93
2024-03-03T00:15:57.957Z,11.68
2024-03-03T00:18:25.038Z,10.02
2024-03-03T00:20:51.999Z,11.82
2024-03-03T00:23:19.090Z,11.13
2024-03-03T00:25:46.255Z,10.43
2024-03-03T00:28:13.307Z,12.25
2024-03-03T00:30:40.473Z,12.27
2024-03-03T00:33:07.945Z,11.48
2024-03-03T00:35:35.039Z,10.98
2024-03-03T00:38:02.022Z,10.98
2024-03-03T00:40:29.124Z,12.95
2024-03-03T00:42:56.174Z,11.52
2024-03-03T00:45:23.119Z,11.18
2024-03-03T00:47:50.177Z,11.45
2024-03-03T00:50:17.200Z,12.57
2024-03-03T00:52:44.189Z,12.38
2024-03-03T00:55:11.323Z,11.13
2024-03-03T00:57:38.434Z,12.45
2024-03-03T01:00:06.691Z,12.15
2024-03-03T01:02:33.788Z,11.85
2024-03-03T01:05:00.726Z,12.55
2024-03-03T01:07:27.786Z,11.65
2024-03-03T01:09:54.914Z,11.60
2024-03-03T01:12:21.904Z,11.77
2024-03-03T01:14:48.984Z,12.55
2024-03-03T01:17:16.033Z,13.27
2024-03-03T01:19:43.503Z,11.70
2024-03-03T01:22:10.881Z,10.95
2024-03-03T01:24:38.868Z,10.88
2024-03-03T01:27:06.002Z,11.25
2024-03-03T01:29:32.944Z,11.20
2024-03-03T01:32:00.038Z,12.52
2024-03-03T01:34:27.159Z,10.98
2024-03-03T01:36:54.358Z,12.50
2024-03-03T01:39:21.595Z,12.75
2024-03-03T01:41:49.045Z,12.07
2024-03-03T01:44:16.095Z,9.07
2024-03-03T01:46:43.668Z,12.90
2024-03-03T01:49:14.195Z,11.63
2024-03-03T01:51:42.104Z,10.85
2024-03-03T01:54:10.425Z,11.27
2024-03-03T01:56:39.899Z,10.73
2024-03-03T01:59:09.799Z,12.00
2024-03-03T02:01:38.454Z,12.23
2024-03-03T02:04:08.786Z,14.27
2024-03-03T02:06:36.302Z,12.45
2024-03-03T02:09:04.077Z,12.40
2024-03-03T02:11:31.070Z,10.57
2024-03-03T02:13:58.905Z,11.70
2024-03-03T02:16:26.200Z,10.70
2024-03-03T02:18:53.431Z,10.05
2024-03-03T02:21:25.149Z,11.80
2024-03-03T02:23:52.789Z,11.30
2024-03-03T02:26:23.469Z,13.20
2024-03-03T02:28:52.461Z,11.15
2024-03-03T02:31:20.147Z,11.15
2024-03-03T02:33:47.521Z,11.93
2024-03-03T02:36:14.672Z,11.68
2024-03-03T02:38:49.534Z,12.65
2024-03-03T02:41:16.509Z,11.07
2024-03-03T02:43:43.466Z,12.20
2024-03-03T02:46:10.616Z,12.40
2024-03-03T02:48:37.651Z,12.90
2024-03-03T02:51:04.690Z,11.30
2024-03-03T02:53:31.812Z,11.40
2024-03-03T02:55:58.727Z,10.50
2024-03-03T02:58:25.787Z,11.52
2024-03-03T03:00:52.882Z,12.00
2024-03-03T03:03:20.135Z,11.35
2024-03-03T03:05:47.461Z,10.70
2024-03-03T03:08:14.443Z,11.45
2024-03-03T03:10:41.534Z,12.48
2024-03-03T03:13:09.214Z,12.00
2024-03-03T03:15:37.376Z,12.43
2024-03-03T03:18:05.066Z,12.32
2024-03-03T03:20:32.710Z,12.77
2024-03-03T03:22:59.651Z,10.65
2024-03-03T03:25:26.735Z,11.23
2024-03-03T03:27:53.694Z,11.57
2024-03-03T03:30:20.999Z,10.93
2024-03-03T03:32:48.008Z,9.30
2024-03-03T03:35:15.010Z,11.43
2024-03-03T03:37:41.977Z,10.82
2024-03-03T03:40:12.591Z,11.32
2024-03-03T03:42:39.597Z,11.18
2024-03-03T03:45:07.155Z,10.93
2024-03-03T03:47:34.507Z,12.20
2024-03-03T03:50:01.693Z,11.45
2024-03-03T03:52:29.490Z,12.82
2024-03-03T03:54:56.532Z,11.32
2024-03-03T03:57:23.553Z,12.43
2024-03-03T03:59:50.556Z,11.40
2024-03-03T04:02:17.741Z,10.90
2024-03-03T04:04:44.671Z,11.02
2024-03-03T04:07:11.895Z,10.68
2024-03-03T04:09:39.093Z,12.48
2024-03-03T04:12:06.768Z,11.38
2024-03-03T04:14:34.850Z,11.05
2024-03-03T04:17:02.232Z,11.20
2024-03-03T04:19:29.216Z,11.43
2024-03-03T04:21:56.215Z,10.98
2024-03-03T04:24:23.195Z,10.90
2024-03-03T04:26:50.184Z,11.88
2024-03-03T04:29:17.516Z,11.30
2024-03-03T04:31:46.015Z,10.80
2024-03-03T04:34:13.255Z,9.23
2024-03-03T04:36:45.871Z,10.48
2024-03-03T04:39:13.835Z,10.27
2024-03-03T04:41:40.794Z,10.68
2024-03-03T04:44:07.865Z,10.32
2024-03-03T04:46:34.937Z,11.35
2024-03-03T04:49:02.009Z,9.73
2024-03-03T04:51:29.047Z,9.80
2024-03-03T04:53:56.738Z,11.05
2024-03-03T04:56:28.476Z,10.65
2024-03-03T04:58:55.594Z,10.82
2024-03-03T05:01:23.478Z,11.50
2024-03-03T05:03:51.321Z,10.48
2024-03-03T05:06:19.429Z,11.18
2024-03-03T05:08:46.527Z,11.05
2024-03-03T05:11:13.915Z,10.05
2024-03-03T05:13:40.872Z,9.93
2024-03-03T05:16:10.847Z,10.73
2024-03-03T05:18:37.770Z,12.45
2024-03-03T05:21:05.189Z,10.63
2024-03-03T05:23:33.408Z,11.50
2024-03-03T05:26:00.326Z,11.45
2024-03-03T05:28:28.535Z,11.20
2024-03-03T05:30:55.569Z,10.48
2024-03-03T05:33:22.721Z,12.07
2024-03-03T05:35:49.658Z,9.18
2024-03-03T05:38:16.675Z,10.35
2024-03-03T05:40:43.628Z,10.70
2024-03-03T05:43:10.642Z,11.98
2024-03-03T05:45:38.637Z,11.02
2024-03-03T05:48:06.239Z,11.18
2024-03-03T05:50:33.209Z,11.07
2024-03-03T05:53:00.231Z,11.25
2024-03-03T05:55:27.219Z,10.45
2024-03-03T05:57:54.937Z,11.35
2024-03-03T06:00:21.945Z,10.65
2024-03-03T06:02:48.897Z,12.05
2024-03-03T06:05:16.079Z,13.00
2024-03-03T06:07:43.154Z,12.15
2024-03-03T06:10:10.454Z,10.57
2024-03-03T06:12:37.473Z,10.68
2024-03-03T06:15:04.821Z,11.57
2024-03-03T06:17:31.773Z,9.90
2024-03-03T06:19:58.754Z,12.18
2024-03-03T06:22:25.682Z,12.88
2024-03-03T06:24:52.691Z,17.13
2024-03-03T06:27:19.589Z,16.67
2024-03-03T06:29:46.615Z,17.63
2024-03-03T06:32:13.974Z,15.43
2024-03-03T06:34:40.902Z,14.50
2024-03-03T06:37:07.891Z,14.32
2024-03-03T06:39:34.893Z,13.98
2024-03-03T06:42:01.896Z,13.88
2024-03-03T06:44:30.957Z,13.52
2024-03-03T06:46:59.359Z,13.65
2024-03-03T06:49:26.683Z,12.02
2024-03-03T06:51:53.692Z,13.45
2024-03-03T06:54:20.718Z,13.02
2024-03-03T06:56:47.661Z,11.50
2024-03-03T06:59:15.060Z,10.05
2024-03-03T07:01:42.099Z,10.27
2024-03-03T07:04:18.316Z,11.02
2024-03-03T07:06:45.471Z,11.38
2024-03-03T07:09:12.458Z,10.60
2024-03-03T07:11:39.481Z,10.88
2024-03-03T07:14:06.801Z,12.27
2024-03-03T07:16:33.989Z,12.38
2024-03-03T07:19:01.150Z,11.15
2024-03-03T07:21:30.514Z,13.02
2024-03-03T07:23:57.560Z,11.93
2024-03-03T07:26:24.702Z,12.85
2024-03-03T07:28:52.621Z,12.52
2024-03-03T07:31:20.057Z,11.45
2024-03-03T07:33:47.144Z,11.90
2024-03-03T07:36:14.137Z,12.32
2024-03-03T07:38:41.392Z,13.40
2024-03-03T07:41:08.381Z,12.05
2024-03-03T07:43:36.015Z,15.43
2024-03-03T07:46:03.028Z,11.15
2024-03-03T07:48:30.031Z,14.65
2024-03-03T07:50:56.995Z,13.00
2024-03-03T07:53:24.289Z,13.02
2024-03-03T07:55:51.304Z,13.70
2024-03-03T07:58:18.458Z,9.63
2024-03-03T08:00:45.805Z,14.85
2024-03-03T08:03:13.777Z,10.40
2024-03-03T08:05:40.813Z,12.13
2024-03-03T08:08:07.900Z,11.52
2024-03-03T08:10:34.992Z,14.45
2024-03-03T08:13:02.249Z,11.75
2024-03-03T08:15:34.540Z,13.68
2024-03-03T08:18:02.612Z,14.63
2024-03-03T08:20:29.940Z,13.63
2024-03-03T08:22:57.159Z,14.57
2024-03-03T08:25:25.792Z,15.57
2024-03-03T08:27:53.742Z,14.55
2024-03-03T08:30:21.167Z,14.93
2024-03-03T08:32:48.290Z,13.65
2024-03-03T08:35:15.742Z,12.63
2024-03-03T08:37:45.796Z,12.82
2024-03-03T08:40:13.193Z,13.43
2024-03-03T08:42:40.251Z,12.63
2024-03-03T08:45:08.435Z,13.07
2024-03-03T08:47:36.126Z,13.40
2024-03-03T08:50:05.392Z,15.02
2024-03-03T08:52:32.492Z,14.90
2024-03-03T08:54:59.538Z,13.15
2024-03-03T08:57:26.759Z,11.73
2024-03-03T08:59:53.853Z,12.50
2024-03-03T09:02:20.801Z,12.02
2024-03-03T09:04:48.294Z,11.60
2024-03-03T09:07:15.469Z,11.13
2024-03-03T09:09:44.340Z,11.88
2024-03-03T09:12:12.834Z,10.82
2024-03-03T09:14:39.982Z,9.98
2024-03-03T09:17:06.985Z,11.13
2024-03-03T09:19:34.035Z,10.75
2024-03-03T09:22:01.247Z,10.25
2024-03-03T09:24:28.300Z,10.98
2024-03-03T09:26:55.252Z,7.97
2024-03-03T09:29:25.109Z,8.88
2024-03-03T09:31:55.784Z,9.73
2024-03-03T09:34:23.380Z,9.63
2024-03-03T09:36:50.727Z,8.80
2024-03-03T09:39:18.271Z,8.10
2024-03-03T09:41:45.256Z,8.02
2024-03-03T09:44:18.405Z,7.07
2024-03-03T09:46:47.976Z,6.50
2024-03-03T09:49:20.227Z,6.57
2024-03-03T09:51:49.498Z,5.60
2024-03-03T09:54:20.057Z,5.15
2024-03-03T09:56:49.493Z,3.90
2024-03-03T09:59:17.089Z,3.78
2024-03-03T10:01:56.860Z,3.38
2024-03-03T10:04:24.612Z,4.00
2024-03-03T10:06:53.711Z,3.90
2024-03-03T10:09:20.839Z,3.50
2024-03-03T10:11:49.170Z,3.22
2024-03-03T10:14:18.748Z,3.05
2024-03-03T10:16:45.705Z,3.15
2024-03-03T10:19:12.725Z,3.33
2024-03-03T10:21:40.582Z,3.90
2024-03-03T10:24:27.126Z,3.67
2024-03-03T10:26:55.931Z,3.83
2024-03-03T10:29:28.313Z,3.35
2024-03-03T10:31:56.393Z,3.60
2024-03-03T10:34:24.374Z,2.80
2024-03-03T10:37:03.913Z,3.35
2024-03-03T10:39:38.398Z,2.75
2024-03-03T10:42:10.366Z,2.15
2024-03-03T10:47:12.178Z,1.92
2024-03-03T10:49:42.707Z,1.88
2024-03-03T10:52:11.679Z,1.40
2024-03-03T10:54:40.375Z,2.15
2024-03-03T10:57:11.001Z,2.67
2024-03-03T10:59:42.596Z,1.77
2024-03-03T11:02:15.469Z,1.48
2024-03-03T11:04:43.945Z,1.85
2024-03-03T11:07:12.465Z,1.63
2024-03-03T11:09:40.036Z,1.70
2024-03-03T11:12:08.351Z,1.60
2024-03-03T11:14:49.161Z,1.48
2024-03-03T11:17:20.927Z,1.80
2024-03-03T11:19:50.631Z,1.30
2024-03-03T11:22:26.156Z,1.83
2024-03-03T11:25:04.042Z,1.70
2024-03-03T11:27:31.412Z,2.22
2024-03-03T11:29:59.156Z,1.67
2024-03-03T11:32:31.526Z,1.60
2024-03-03T11:34:59.724Z,1.67
2024-03-03T11:37:29.050Z,1.60
2024-03-03T11:39:58.091Z,2.30
2024-03-03T11:42:34.314Z,1.63
2024-03-03T11:45:03.089Z,2.25
2024-03-03T11:47:46.988Z,2.33
2024-03-03T11:50:22.841Z,2.25
2024-03-03T11:52:51.167Z,2.30
2024-03-03T11:55:27.540Z,2.20
2024-03-03T11:58:00.599Z,2.10
2024-03-03T12:00:29.681Z,1.85
2024-03-03T12:02:59.510Z,2.30
2024-03-03T12:05:27.680Z,1.90
2024-03-03T12:07:56.623Z,2.30
2024-03-03T12:10:33.966Z,2.10
2024-03-03T12:13:03.030Z,2.00
2024-03-03T12:15:31.103Z,2.13
2024-03-03T12:18:00.318Z,2.05
2024-03-03T12:20:30.067Z,2.25
2024-03-03T12:22:57.994Z,2.10
2024-03-03T12:25:26.608Z,1.80
2024-03-03T12:27:57.297Z,1.70
2024-03-03T12:30:33.744Z,2.05
2024-03-03T12:33:02.740Z,2.08
2024-03-03T12:35:29.826Z,1.60
2024-03-03T12:37:56.824Z,2.15
2024-03-03T12:40:31.015Z,2.50
2024-03-03T12:42:58.977Z,1.90
2024-03-03T12:45:26.120Z,1.55
2024-03-03T12:47:53.291Z,1.60
2024-03-03T12:50:21.107Z,1.85
2024-03-03T12:52:49.329Z,1.67
2024-03-03T12:55:16.957Z,1.73
2024-03-03T12:57:45.369Z,1.35
2024-03-03T13:00:16.950Z,1.50
2024-03-03T13:02:45.537Z,1.25
2024-03-03T13:05:15.524Z,1.45
2024-03-03T13:07:52.867Z,1.52
2024-03-03T13:10:25.324Z,1.25
2024-03-03T13:12:57.121Z,1.40
2024-03-03T13:15:29.027Z,1.25
2024-03-03T13:18:14.614Z,1.02
2024-03-03T13:20:42.636Z,0.95
2024-03-03T13:23:20.552Z,2.13
2024-03-03T13:25:47.963Z,1.02
2024-03-03T13:28:17.060Z,1.33
2024-03-03T13:30:58.248Z,0.90
2024-03-03T13:33:32.642Z,1.75
2024-03-03T13:36:01.910Z,1.35
2024-03-03T13:38:29.243Z,1.15
2024-03-03T13:40:56.247Z,1.50
2024-03-03T13:43:23.570Z,0.88
2024-03-03T13:45:51.079Z,1.60
2024-03-03T13:48:18.148Z,1.25
2024-03-03T13:50:45.201Z,0.85
2024-03-03T13:53:12.718Z,0.98
2024-03-03T13:55:39.818Z,1.30
2024-03-03T13:58:08.057Z,1.15
2024-03-03T14:00:37.065Z,1.10
2024-03-03T14:03:29.686Z,0.93
2024-03-03T14:08:23.716Z,0.90
2024-03-03T14:10:50.805Z,0.90
2024-03-03T14:13:17.820Z,0.80
2024-03-03T14:15:44.926Z,0.88
2024-03-03T14:18:12.209Z,0.80
2024-03-03T14:20:39.565Z,0.80
2024-03-03T14:23:06.789Z,0.60
2024-03-03T14:25:33.857Z,0.63
2024-03-03T14:28:09.020Z,0.60
2024-03-03T14:30:41.317Z,0.82
2024-03-03T14:33:08.364Z,0.95
2024-03-03T14:35:35.261Z,0.40
2024-03-03T14:38:02.500Z,0.77
2024-03-03T14:40:48.243Z,0.77
2024-03-03T14:43:15.370Z,0.80
2024-03-03T14:45:42.709Z,0.55
2024-03-03T14:48:09.791Z,0.60
2024-03-03T14:50:36.824Z,0.60
2024-03-03T14:53:07.470Z,0.73
2024-03-03T14:55:34.933Z,0.93
2024-03-03T14:58:05.132Z,0.50
2024-03-03T15:00:33.282Z,0.65
2024-03-03T15:03:00.326Z,0.80
2024-03-03T15:05:27.226Z,0.70
2024-03-03T15:07:54.271Z,0.93
2024-03-03T15:10:21.527Z,0.80
2024-03-03T15:12:48.607Z,0.65
2024-03-03T15:15:15.607Z,0.80
2024-03-03T15:17:42.595Z,0.65
2024-03-03T15:20:15.966Z,1.02
2024-03-03T15:22:43.080Z,1.05
2024-03-03T15:25:10.231Z,0.82
2024-03-03T15:27:38.116Z,1.00
2024-03-03T15:30:06.650Z,1.10
2024-03-03T15:32:33.594Z,0.80
2024-03-03T15:35:01.041Z,0.93
2024-03-03T15:37:28.211Z,1.10
2024-03-03T15:39:55.334Z,1.05
2024-03-03T15:42:22.447Z,1.60
2024-03-03T15:44:49.510Z,1.30
2024-03-03T15:47:16.714Z,1.30
2024-03-03T15:49:43.613Z,1.00
2024-03-03T15:52:11.236Z,1.00
2024-03-03T15:54:38.226Z,0.90
2024-03-03T15:57:06.765Z,0.98
2024-03-03T15:59:33.745Z,0.90
2024-03-03T16:02:02.918Z,0.60
2024-03-03T16:04:30.443Z,0.63
2024-03-03T16:06:58.769Z,0.88
2024-03-03T16:09:26.530Z,1.35
2024-03-03T16:11:54.322Z,2.28
2024-03-03T16:14:21.385Z,1.27
2024-03-03T16:16:48.474Z,1.25
2024-03-03T16:19:15.513Z,1.17
2024-03-03T16:21:43.868Z,1.10
2024-03-03T16:24:10.904Z,1.30
2024-03-03T16:26:39.326Z,1.40
2024-03-03T16:29:06.378Z,1.88
2024-03-03T16:31:34.282Z,2.83
2024-03-03T16:34:01.374Z,2.17
2024-03-03T16:36:28.487Z,2.38
2024-03-03T16:38:55.445Z,3.72
2024-03-03T16:41:22.518Z,2.58
2024-03-03T16:43:49.520Z,4.55
2024-03-03T16:46:16.737Z,4.20
2024-03-03T16:48:43.996Z,5.07
2024-03-03T16:51:11.058Z,5.72
2024-03-03T16:53:38.065Z,3.33
2024-03-03T16:56:06.588Z,3.00
2024-03-03T16:58:33.926Z,3.63
2024-03-03T17:01:03.130Z,2.70
2024-03-03T17:03:32.240Z,2.63
2024-03-03T17:05:59.456Z,2.40
2024-03-03T17:08:26.603Z,2.45
2024-03-03T17:10:53.727Z,2.60
2024-03-03T17:13:20.838Z,3.55
2024-03-03T17:15:47.999Z,2.83
2024-03-03T17:18:15.199Z,2.90
2024-03-03T17:20:42.457Z,3.75
2024-03-03T17:23:11.298Z,3.97
2024-03-03T17:25:38.361Z,3.70
2024-03-03T17:28:05.886Z,3.60
2024-03-03T17:30:32.896Z,3.88
2024-03-03T17:32:59.872Z,3.22
2024-03-03T17:35:26.956Z,3.20
2024-03-03T17:37:53.949Z,4.03
2024-03-03T17:40:21.108Z,3.30
2024-03-03T17:42:48.172Z,2.65
2024-03-03T17:45:15.489Z,2.92
2024-03-03T17:47:42.607Z,2.92
2024-03-03T17:50:09.959Z,2.88
2024-03-03T17:52:37.314Z,2.80
2024-03-03T17:55:05.289Z,2.90
2024-03-03T17:57:33.467Z,3.08
2024-03-03T18:00:01.999Z,3.90
2024-03-03T18:02:29.415Z,2.63
2024-03-03T18:04:56.396Z,3.25
2024-03-03T18:07:24.248Z,3.00
2024-03-03T18:09:51.350Z,3.10
2024-03-03T18:12:18.498Z,2.78
2024-03-03T18:14:45.592Z,3.20
2024-03-03T18:17:12.547Z,3.65
2024-03-03T18:19:40.016Z,3.45
2024-03-03T18:22:07.130Z,3.47
2024-03-03T18:24:34.643Z,3.63
2024-03-03T18:27:01.746Z,3.90
2024-03-03T18:29:31.750Z,4.05
2024-03-03T18:31:59.398Z,2.83
2024-03-03T18:34:26.487Z,3.25
2024-03-03T18:36:54.885Z,3.08
2024-03-03T18:39:24.821Z,3.08
2024-03-03T18:41:52.260Z,3.60
2024-03-03T18:44:20.062Z,3.20
2024-03-03T18:46:47.192Z,3.65
2024-03-03T18:49:14.481Z,2.58
2024-03-03T18:51:43.337Z,3.78
2024-03-03T18:54:10.432Z,3.10
2024-03-03T18:56:37.490Z,2.88
2024-03-03T18:59:04.498Z,3.83
2024-03-03T19:01:33.835Z,2.92
2024-03-03T19:04:01.692Z,3.60
2024-03-03T19:06:29.196Z,2.55
2024-03-03T19:08:57.004Z,3.45
2024-03-03T19:11:24.044Z,3.13
2024-03-03T19:13:53.469Z,3.17
2024-03-03T19:16:20.460Z,2.80
2024-03-03T19:18:47.830Z,2.88
2024-03-03T19:21:16.104Z,2.92
2024-03-03T19:23:43.166Z,3.47
2024-03-03T19:26:10.504Z,2.72
2024-03-03T19:28:38.700Z,2.97
2024-03-03T19:31:05.970Z,2.40
2024-03-03T19:33:33.292Z,2.80
2024-03-03T19:36:01.357Z,2.75
2024-03-03T19:38:29.835Z,2.35
2024-03-03T19:40:57.774Z,2.78
2024-03-03T19:43:25.643Z,2.53
2024-03-03T19:45:53.049Z,2.83
2024-03-03T19:48:20.745Z,2.38
2024-03-03T19:50:47.909Z,2.58
2024-03-03T19:53:15.218Z,2.72
2024-03-03T19:55:43.968Z,2.35
2024-03-03T19:58:10.996Z,2.17
2024-03-03T20:02:57.520Z,2.50
2024-03-03T20:05:24.658Z,2.60
2024-03-03T20:07:51.732Z,2.38
2024-03-03T20:10:20.389Z,2.60
2024-03-03T20:12:47.404Z,2.35
2024-03-03T20:15:14.462Z,2.30
2024-03-03T20:17:41.496Z,2.42
2024-03-03T20:20:10.783Z,2.28
2024-03-03T20:22:38.535Z,2.30
2024-03-03T20:25:06.408Z,2.45
2024-03-03T20:27:34.102Z,2.33
2024-03-03T20:30:01.427Z,2.42
2024-03-03T20:32:28.612Z,2.20
2024-03-03T20:34:57.962Z,2.72
2024-03-03T20:37:25.442Z,2.35
2024-03-03T20:39:53.875Z,2.20
2024-03-03T20:42:21.128Z,2.47
2024-03-03T20:44:48.358Z,2.85
2024-03-03T20:47:15.356Z,2.83
2024-03-03T20:49:42.361Z,2.50
2024-03-03T20:52:09.395Z,3.78
2024-03-03T20:54:36.481Z,4.07
2024-03-03T20:57:09.609Z,5.45
2024-03-03T20:59:36.884Z,4.90
2024-03-03T21:02:05.502Z,3.50
2024-03-03T21:04:33.788Z,3.45
2024-03-03T21:07:01.535Z,2.38
2024-03-03T21:09:32.823Z,2.75
2024-03-03T21:11:59.773Z,2.13
2024-03-03T21:14:27.885Z,2.67
2024-03-03T21:16:54.863Z,4.10
2024-03-03T21:19:21.901Z,4.70
2024-03-03T21:21:49.352Z,6.03
2024-03-03T21:24:16.630Z,9.82
2024-03-03T21:26:47.089Z,6.88
2024-03-03T21:29:14.168Z,6.60
2024-03-03T21:31:41.323Z,10.23
2024-03-03T21:34:08.398Z,5.93
2024-03-03T21:36:35.895Z,12.10
2024-03-03T21:39:02.922Z,7.80
2024-03-03T21:41:29.872Z,3.28
2024-03-03T21:43:56.851Z,5.35
2024-03-03T21:46:25.712Z,4.53
2024-03-03T21:48:53.093Z,5.10
2024-03-03T21:51:20.161Z,5.53
2024-03-03T21:53:50.856Z,4.53
2024-03-03T21:56:18.372Z,8.52
2024-03-03T21:58:46.289Z,7.75
2024-03-03T22:01:13.990Z,5.90
2024-03-03T22:03:41.052Z,3.25
2024-03-03T22:06:08.079Z,3.60
2024-03-03T22:08:35.073Z,3.97
2024-03-03T22:11:02.089Z,2.40
2024-03-03T22:13:29.182Z,3.90
2024-03-03T22:15:56.173Z,3.75
2024-03-03T22:18:23.538Z,6.53
2024-03-03T22:20:50.463Z,7.75
2024-03-03T22:23:17.419Z,5.95
2024-03-03T22:25:44.547Z,3.22
2024-03-03T22:28:11.610Z,11.75
2024-03-03T22:30:39.984Z,8.75
2024-03-03T22:33:06.966Z,3.47
2024-03-03T22:35:33.911Z,4.63
2024-03-03T22:38:01.041Z,4.35
2024-03-03T22:40:30.633Z,6.22
2024-03-03T22:42:58.405Z,4.38
2024-03-03T22:45:28.505Z,3.85
2024-03-03T22:47:55.529Z,4.18
2024-03-03T22:50:23.278Z,4.32
2024-03-03T22:52:50.236Z,4.50
2024-03-03T22:55:17.218Z,5.43
2024-03-03T22:57:44.286Z,4.68
2024-03-03T23:00:14.683Z,11.52
2024-03-03T23:02:41.923Z,11.35
2024-03-03T23:05:09.261Z,10.70
2024-03-03T23:07:36.383Z,9.75
2024-03-03T23:10:03.892Z,9.18
2024-03-03T23:12:31.021Z,8.52
2024-03-03T23:14:57.946Z,9.38
2024-03-03T23:17:24.998Z,8.55
2024-03-03T23:19:51.985Z,10.68
2024-03-03T23:22:19.589Z,10.25
2024-03-03T23:24:46.885Z,9.02
2024-03-03T23:27:13.874Z,8.27
2024-03-03T23:29:40.815Z,6.82
2024-03-03T23:32:07.991Z,6.75
2024-03-03T23:34:35.053Z,7.55
2024-03-03T23:37:13.280Z,6.80
2024-03-03T23:39:46.326Z,7.93
2024-03-03T23:42:13.837Z,7.15
2024-03-03T23:44:40.917Z,6.05
2024-03-03T23:47:07.891Z,5.40
2024-03-03T23:49:35.258Z,4.25
2024-03-03T23:52:02.313Z,4.70
2024-03-03T23:54:29.233Z,4.93
2024-03-03T23:56:56.612Z,4.30
2024-03-03T23:59:23.533Z,4.65
